Time;durP1;ratioP1;P1;durP2;ratioP2;P2;SDS_P1;SDS_P2;PMS_P1;PMS_P2;Temp;Humidity;BMP_temperature;BMP_pressure;BME280_temperature;BME280_humidity;BME280_pressure;Samples;Min_cycle;Max_cycle;Signal;HPM_P1;HPM_P2
2021/10/02 00:31:25;;;;;;;;;2.00;2.00;;;;;21.20;50.35;100935.66;5079608;28;45393;-53
2021/10/02 00:34:00;;;;;;;;;4.00;2.25;;;;;21.18;50.07;100919.06;5093119;27;45466;-54
2021/10/02 00:47:04;;;;;;;;;3.00;3.00;;;;;21.19;49.53;100917.28;5079827;27;45293;-46
2021/10/02 00:49:29;;;;;;;;;2.25;2.00;;;;;21.16;50.22;100910.41;5079469;27;45586;-48
2021/10/02 00:51:55;;;;;;;;;4.25;3.00;;;;;21.18;50.16;100908.53;5079414;27;45861;-45
2021/10/02 00:54:21;;;;;;;;;2.50;2.50;;;;;21.19;50.01;100912.00;5079539;27;45506;-47
2021/10/02 00:56:47;;;;;;;;;1.50;1.50;;;;;21.19;50.13;100912.00;5079683;27;45375;-47
2021/10/02 00:59:12;;;;;;;;;4.00;2.50;;;;;21.17;49.60;100912.09;5079465;27;46851;-43
2021/10/02 01:01:54;;;;;;;;;2.00;2.00;;;;;21.19;49.89;100901.47;5079239;27;45228;-50
2021/10/02 01:04:29;;;;;;;;;2.25;2.25;;;;;21.18;50.03;100895.34;5079451;27;45366;-45
2021/10/02 01:07:15;;;;;;;;;1.75;1.75;;;;;21.19;49.90;100901.47;5079562;27;45249;-44
2021/10/02 01:09:52;;;;;;;;;3.75;3.00;;;;;21.19;49.54;100901.47;5079205;27;45509;-50
2021/10/02 01:12:17;;;;;;;;;4.00;3.00;;;;;21.18;49.91;100908.53;5079103;27;45488;-43
2021/10/02 01:15:01;;;;;;;;;4.00;3.00;;;;;21.19;50.37;100909.38;5079651;28;45331;-48
2021/10/02 01:17:53;;;;;;;;;3.00;3.00;;;;;21.18;49.79;100908.53;5079435;27;45732;-44
2021/10/02 01:20:43;;;;;;;;;3.00;3.00;;;;;21.19;50.09;100912.00;5078930;27;46697;-50
2021/10/02 01:23:34;;;;;;;;;3.00;3.00;;;;;21.19;49.84;100909.38;5078578;27;45334;-44
2021/10/02 01:26:25;;;;;;;;;4.00;2.00;;;;;21.19;50.10;100915.50;5079052;27;45353;-47
2021/10/02 01:28:56;;;;;;;;;1.50;1.50;;;;;21.18;49.92;100908.53;5079343;27;45346;-49
2021/10/02 01:31:34;;;;;;;;;4.00;2.50;;;;;21.16;49.87;100898.09;5078580;27;46203;-53
2021/10/02 01:34:12;;;;;;;;;2.50;2.00;;;;;21.17;49.70;100897.13;5078888;27;45751;-43
2021/10/02 01:37:02;;;;;;;;;3.75;3.00;;;;;21.19;49.45;100896.19;5079001;28;45284;-50
2021/10/02 01:47:50;;;;;;;;;3.75;3.00;;;;;21.17;49.60;100867.28;5079158;28;45363;-53
2021/10/02 01:50:20;;;;;;;;;1.75;1.75;;;;;21.17;49.84;100868.13;5079107;27;45321;-47
2021/10/02 01:52:47;;;;;;;;;2.00;2.00;;;;;21.16;49.75;100865.59;5078609;27;46347;-49
2021/10/02 01:55:13;;;;;;;;;3.75;3.00;;;;;21.16;49.91;100865.59;5078492;27;45313;-51
2021/10/02 01:57:41;;;;;;;;;1.25;1.25;;;;;21.16;49.43;100855.91;5078662;27;45340;-47
2021/10/02 02:00:12;;;;;;;;;5.25;2.75;;;;;21.17;49.49;100852.31;5078482;27;45339;-51
2021/10/02 02:02:44;;;;;;;;;3.00;3.00;;;;;21.17;49.38;100854.94;5078337;27;46637;-54
2021/10/02 02:05:11;;;;;;;;;2.00;2.00;;;;;21.16;49.87;100844.50;5078424;27;45689;-53
2021/10/02 02:07:40;;;;;;;;;4.00;4.00;;;;;21.18;49.51;100847.91;5078413;27;45346;-42
2021/10/02 02:10:07;;;;;;;;;3.00;2.00;;;;;21.17;49.57;100840.94;5078517;27;45552;-53
2021/10/02 02:12:34;;;;;;;;;1.50;1.50;;;;;21.18;49.78;100847.91;5077903;27;45283;-55
2021/10/02 02:15:08;;;;;;;;;1.75;1.75;;;;;21.17;49.97;100848.84;5076842;28;46153;-52
2021/10/02 02:17:47;;;;;;;;;2.00;2.00;;;;;21.18;49.50;100847.91;5078281;27;45248;-45
2021/10/02 02:20:20;;;;;;;;;2.00;2.00;;;;;21.17;49.69;100830.41;5078338;27;45449;-53
2021/10/02 02:22:48;;;;;;;;;1.00;1.00;;;;;21.17;49.72;100831.22;5078111;27;46386;-52
2021/10/02 02:25:13;;;;;;;;;5.00;3.50;;;;;21.15;49.74;100840.16;5078004;28;45341;-53
2021/10/02 02:27:38;;;;;;;;;2.25;2.00;;;;;21.17;49.74;100836.50;5078074;27;45496;-56
2021/10/02 02:30:05;;;;;;;;;2.00;2.00;;;;;21.17;49.74;100820.69;5093964;27;45633;-52
2021/10/02 02:32:31;;;;;;;;;2.00;2.00;;;;;21.17;49.85;100819.84;5077320;28;45696;-50
2021/10/02 02:34:57;;;;;;;;;3.50;3.00;;;;;21.17;49.30;100822.50;5077411;27;45479;-50
2021/10/02 02:37:22;;;;;;;;;1.00;1.00;;;;;21.17;49.46;100815.41;5077869;27;45315;-52
2021/10/02 02:39:48;;;;;;;;;4.25;3.00;;;;;21.16;49.52;100807.59;5078321;27;45470;-51
2021/10/02 02:42:13;;;;;;;;;1.00;1.00;;;;;21.16;49.54;100803.19;5077606;27;45274;-41
2021/10/02 02:44:39;;;;;;;;;1.75;1.75;;;;;21.16;49.65;100792.66;5077601;28;45279;-42
2021/10/02 02:47:09;;;;;;;;;3.00;1.50;;;;;21.16;49.71;100795.28;5077748;28;45362;-47
2021/10/02 02:50:14;;;;;;;;;2.00;2.00;;;;;21.16;49.30;100805.84;5077885;27;45385;-50
2021/10/02 02:53:18;;;;;;;;;3.00;3.00;;;;;21.17;49.65;100804.03;5077306;27;45545;-49
2021/10/02 02:56:08;;;;;;;;;2.00;2.00;;;;;21.16;49.70;100791.78;5056011;27;45395;-53
2021/10/02 02:58:35;;;;;;;;;4.00;2.00;;;;;21.15;49.65;100796.22;5077205;27;46125;-56
2021/10/02 03:01:03;;;;;;;;;2.00;2.00;;;;;21.15;49.42;100788.31;5077601;27;45537;-57
2021/10/02 03:03:33;;;;;;;;;2.00;2.00;;;;;21.16;49.58;100781.25;5093128;27;46269;-56
2021/10/02 03:06:04;;;;;;;;;4.50;3.00;;;;;21.16;49.63;100781.25;5077371;27;45227;-56
2021/10/02 03:08:36;;;;;;;;;1.75;1.75;;;;;21.16;49.79;100782.13;5077471;28;45354;-56
2021/10/02 03:11:03;;;;;;;;;2.75;2.75;;;;;21.16;49.59;100786.53;5093117;27;45516;-56
2021/10/02 03:13:35;;;;;;;;;2.00;2.00;;;;;21.16;49.63;100781.25;5077049;28;46442;-56
2021/10/02 03:16:03;;;;;;;;;2.00;2.00;;;;;21.17;49.71;100764.50;5077142;27;46532;-53
2021/10/02 03:18:32;;;;;;;;;2.25;2.00;;;;;21.15;49.13;100750.56;5077326;27;45354;-57
2021/10/02 03:20:58;;;;;;;;;5.25;2.75;;;;;21.15;49.62;100750.56;5077465;27;45283;-56
2021/10/02 03:23:25;;;;;;;;;3.00;2.00;;;;;21.15;49.45;100774.28;5077127;27;46689;-49
2021/10/02 03:25:51;;;;;;;;;3.25;2.00;;;;;21.16;49.35;100789.16;5077365;27;45337;-50
2021/10/02 03:28:17;;;;;;;;;4.00;2.25;;;;;21.16;49.33;100791.78;5076903;27;45362;-50
2021/10/02 03:30:43;;;;;;;;;3.00;3.00;;;;;21.14;49.37;100778.72;5077233;27;45546;-48
2021/10/02 03:33:11;;;;;;;;;2.00;2.00;;;;;21.15;49.48;100763.75;5076866;27;46116;-44
2021/10/02 03:35:36;;;;;;;;;3.25;3.00;;;;;21.13;49.29;100744.53;5076883;28;45746;-43
2021/10/02 03:38:02;;;;;;;;;1.25;1.00;;;;;21.15;49.53;100726.84;5076963;27;45330;-46
2021/10/02 03:40:27;;;;;;;;;3.00;3.00;;;;;21.14;49.62;100727.78;5077239;27;45306;-43
2021/10/02 03:42:55;;;;;;;;;1.00;1.00;;;;;21.15;49.61;100729.47;5077155;27;46425;-53
2021/10/02 03:45:25;;;;;;;;;2.00;2.00;;;;;21.13;49.66;100724.31;5076784;27;45421;-49
2021/10/02 03:47:50;;;;;;;;;2.00;2.00;;;;;21.12;49.46;100724.38;5077187;27;45281;-50
2021/10/02 03:50:17;;;;;;;;;2.00;2.00;;;;;21.14;49.61;100725.16;5076959;27;45322;-52
2021/10/02 03:52:43;;;;;;;;;2.00;2.00;;;;;21.15;49.32;100716.31;5076463;27;46234;-56
2021/10/02 03:55:12;;;;;;;;;2.00;2.00;;;;;21.13;49.50;100711.13;5076579;27;45361;-57
2021/10/02 03:57:37;;;;;;;;;2.00;2.00;;;;;21.13;49.47;100699.72;5076647;28;45408;-56
2021/10/02 04:00:06;;;;;;;;;1.25;1.25;;;;;21.14;49.42;100712.84;5076733;28;45455;-50
2021/10/02 04:02:31;;;;;;;;;3.00;2.00;;;;;21.13;49.13;100718.19;5076301;28;45677;-55
2021/10/02 04:04:57;;;;;;;;;2.75;1.75;;;;;21.14;49.34;100725.16;5076422;28;45244;-51
2021/10/02 04:07:22;;;;;;;;;1.00;1.00;;;;;21.13;49.86;100726.09;5077007;27;45270;-56
2021/10/02 04:09:47;;;;;;;;;2.50;2.50;;;;;21.14;49.62;100711.97;5092483;27;45258;-56
2021/10/02 04:12:13;;;;;;;;;1.75;1.75;;;;;21.12;49.62;100701.53;5076157;27;47248;-55
2021/10/02 04:14:39;;;;;;;;;4.25;2.25;;;;;21.13;49.79;100699.72;5076341;27;45344;-50
2021/10/02 04:17:04;;;;;;;;;5.00;5.00;;;;;21.14;49.66;100704.06;5076432;28;45405;-56
2021/10/02 04:19:29;;;;;;;;;2.00;2.00;;;;;21.13;49.21;100699.72;5075374;28;45587;-52
2021/10/02 04:21:55;;;;;;;;;3.00;2.00;;;;;21.13;49.49;100705.00;5076502;27;46080;-56
2021/10/02 04:24:20;;;;;;;;;4.00;2.50;;;;;21.12;49.70;100705.94;5076457;27;45327;-51
2021/10/02 04:26:46;;;;;;;;;2.00;2.00;;;;;21.12;49.42;100709.44;5076446;27;45243;-55
2021/10/02 04:29:12;;;;;;;;;2.00;2.00;;;;;21.12;49.83;100703.31;5076416;27;45433;-55
2021/10/02 04:31:38;;;;;;;;;3.00;1.50;;;;;21.14;49.61;100711.97;5076008;27;45419;-55
2021/10/02 04:34:05;;;;;;;;;1.25;1.25;;;;;21.12;49.69;100703.31;5076140;28;45671;-57
2021/10/02 04:36:31;;;;;;;;;1.50;1.25;;;;;21.14;49.55;100706.69;5076273;28;45909;-53
2021/10/02 04:38:56;;;;;;;;;2.25;1.25;;;;;21.13;49.66;100699.72;5076181;27;45326;-52
2021/10/02 04:41:22;;;;;;;;;2.00;2.00;;;;;21.13;49.59;100700.59;5076392;27;46424;-56
2021/10/02 04:43:47;;;;;;;;;2.00;2.00;;;;;21.12;49.40;100705.94;5075944;27;45361;-53
2021/10/02 04:46:15;;;;;;;;;1.00;1.00;;;;;21.14;49.81;100711.97;5076104;27;45369;-53
2021/10/02 04:48:41;;;;;;;;;2.00;2.00;;;;;21.12;49.79;100688.34;5075074;28;45354;-56
2021/10/02 04:51:08;;;;;;;;;2.00;2.00;;;;;21.13;49.33;100689.19;5075845;27;46492;-53
2021/10/02 04:53:34;;;;;;;;;2.00;2.00;;;;;21.13;49.40;100691.81;5075882;28;45480;-50
2021/10/02 04:56:01;;;;;;;;;2.00;2.00;;;;;21.13;49.70;100710.28;5075967;28;45437;-50
2021/10/02 04:58:28;;;;;;;;;2.25;2.25;;;;;21.13;49.74;100702.38;5079937;27;45529;-53
2021/10/02 05:00:54;;;;;;;;;2.00;2.00;;;;;21.14;49.81;100704.06;5095096;27;46606;-53
2021/10/02 05:03:19;;;;;;;;;2.00;2.00;;;;;21.14;49.59;100709.34;5079342;27;45615;-50
2021/10/02 05:05:44;;;;;;;;;2.00;2.00;;;;;21.14;49.88;100704.94;5079467;27;45229;-56
2021/10/02 05:08:10;;;;;;;;;2.00;2.00;;;;;21.14;49.69;100711.97;5079430;27;45354;-56
2021/10/02 05:10:35;;;;;;;;;1.00;1.00;;;;;21.13;49.75;100713.78;5079001;27;45422;-54
2021/10/02 05:13:01;;;;;;;;;1.75;1.75;;;;;21.13;49.88;100721.69;5079035;27;45304;-50
2021/10/02 05:15:26;;;;;;;;;2.00;2.00;;;;;21.10;49.83;100718.38;5079522;27;45305;-56
2021/10/02 05:17:51;;;;;;;;;2.50;2.50;;;;;21.14;49.25;100725.16;5079353;27;45712;-53
2021/10/02 05:20:17;;;;;;;;;1.50;1.50;;;;;21.13;49.63;100712.91;5078672;28;53694;-56
2021/10/02 05:22:42;;;;;;;;;2.00;2.00;;;;;21.13;49.83;100707.63;5078949;27;45405;-56
2021/10/02 05:25:07;;;;;;;;;2.00;2.00;;;;;21.13;49.50;100697.97;5078755;27;48121;-56
2021/10/02 05:27:33;;;;;;;;;2.00;2.00;;;;;21.13;49.88;100687.41;5079273;27;45526;-55
2021/10/02 05:29:58;;;;;;;;;2.00;2.00;;;;;21.14;49.46;100685.63;5079088;27;46531;-48
2021/10/02 05:32:25;;;;;;;;;2.00;2.00;;;;;21.13;49.84;100676.00;5079019;27;45427;-54
2021/10/02 05:34:50;;;;;;;;;2.00;2.00;;;;;21.14;49.59;100677.72;5078885;27;45324;-53
2021/10/02 05:37:15;;;;;;;;;2.25;2.25;;;;;21.14;49.76;100667.16;5078915;27;45524;-47
2021/10/02 05:39:41;;;;;;;;;3.25;2.50;;;;;21.14;49.72;100662.75;5078444;27;45617;-56
2021/10/02 05:42:06;;;;;;;;;3.00;3.00;;;;;21.13;49.72;100671.59;5078630;27;45325;-53
2021/10/02 05:44:33;;;;;;;;;2.50;1.75;;;;;21.12;49.69;100651.47;5078669;27;45238;-55
2021/10/02 05:46:58;;;;;;;;;3.00;2.00;;;;;21.12;49.58;100654.09;5079147;27;45315;-58
2021/10/02 05:49:24;;;;;;;;;2.75;2.25;;;;;21.13;49.57;100641.75;5078770;27;46184;-56
2021/10/02 05:51:49;;;;;;;;;2.00;2.00;;;;;21.13;49.92;100655.78;5078623;27;45354;-57
2021/10/02 05:54:14;;;;;;;;;2.25;2.25;;;;;21.13;49.39;100654.94;5078672;27;46218;-57
2021/10/02 05:56:40;;;;;;;;;2.00;2.00;;;;;21.12;49.53;100642.69;5078773;27;45978;-57
2021/10/02 05:59:05;;;;;;;;;3.00;1.75;;;;;21.12;49.90;100645.31;5078242;27;46400;-57
2021/10/02 06:01:31;;;;;;;;;2.50;1.50;;;;;21.14;49.61;100664.53;5078044;27;45456;-51
2021/10/02 06:03:56;;;;;;;;;2.00;1.00;;;;;21.13;49.31;100661.06;5094620;27;45260;-54
2021/10/02 06:06:22;;;;;;;;;2.75;2.75;;;;;21.13;49.54;100665.47;5078547;27;45560;-57
2021/10/02 06:08:47;;;;;;;;;3.75;2.00;;;;;21.10;49.67;100655.97;5076768;27;46811;-56
2021/10/02 06:11:13;;;;;;;;;2.00;2.00;;;;;21.12;49.58;100656.72;5078149;27;45441;-57
2021/10/02 06:13:38;;;;;;;;;2.00;2.00;;;;;21.11;49.54;100657.66;5078532;27;45459;-57
2021/10/02 06:16:04;;;;;;;;;2.00;2.00;;;;;21.11;49.53;100657.66;5078459;27;45499;-56
2021/10/02 06:18:29;;;;;;;;;1.75;1.75;;;;;21.13;49.42;100662.84;5078267;28;46540;-57
2021/10/02 06:20:55;;;;;;;;;2.00;2.00;;;;;21.12;49.34;100669.03;5077896;27;45387;-56
2021/10/02 06:23:22;;;;;;;;;3.25;2.00;;;;;21.12;49.54;100667.28;5078023;27;45267;-57
2021/10/02 06:25:48;;;;;;;;;3.75;2.00;;;;;21.12;49.62;100664.63;5078234;28;45616;-52
2021/10/02 06:28:13;;;;;;;;;2.00;2.00;;;;;21.11;49.58;100656.84;5077897;27;45313;-56
2021/10/02 06:30:39;;;;;;;;;5.25;2.00;;;;;21.12;49.33;100645.31;5077894;27;45335;-56
2021/10/02 06:33:04;;;;;;;;;2.00;1.00;;;;;21.12;49.66;100640.06;5078043;27;45342;-57
2021/10/02 06:35:30;;;;;;;;;2.00;2.00;;;;;21.12;49.73;100626.88;5078370;28;45768;-56
2021/10/02 06:37:57;;;;;;;;;2.50;2.50;;;;;21.12;49.81;100634.78;5077601;27;45406;-52
2021/10/02 06:40:23;;;;;;;;;1.75;1.75;;;;;21.12;49.42;100629.50;5077693;27;45451;-50
2021/10/02 06:42:48;;;;;;;;;2.00;2.00;;;;;21.12;49.70;100642.69;5077818;28;45426;-57
2021/10/02 06:45:14;;;;;;;;;3.50;2.75;;;;;21.10;49.22;100642.78;5077994;27;45375;-53
2021/10/02 06:47:39;;;;;;;;;1.00;1.00;;;;;21.12;49.87;100642.69;5077572;27;45434;-56
2021/10/02 06:50:05;;;;;;;;;2.00;2.00;;;;;21.13;49.70;100641.75;5077601;27;45338;-50
2021/10/02 06:52:30;;;;;;;;;1.00;1.00;;;;;21.12;49.55;100656.72;5077834;27;45437;-45
2021/10/02 06:54:57;;;;;;;;;4.00;3.50;;;;;21.12;49.67;100664.63;5077958;27;45300;-47
2021/10/02 06:57:24;;;;;;;;;3.00;1.75;;;;;21.14;49.76;100656.63;5077551;27;45698;-41
2021/10/02 06:59:50;;;;;;;;;1.00;1.00;;;;;21.14;49.80;100657.50;5077359;27;45485;-56
2021/10/02 07:02:15;;;;;;;;;1.75;1.75;;;;;21.13;49.46;100657.56;5077545;27;45288;-50
2021/10/02 07:04:42;;;;;;;;;5.00;2.50;;;;;21.13;49.42;100654.94;5077719;27;45389;-56
2021/10/02 07:07:07;;;;;;;;;3.00;1.50;;;;;21.13;49.46;100644.38;5077161;28;45608;-49
2021/10/02 07:09:33;;;;;;;;;2.75;2.00;;;;;21.13;49.79;100644.38;5077515;27;45331;-53
2021/10/02 07:11:58;;;;;;;;;3.75;3.00;;;;;21.12;49.64;100642.69;5077323;27;45343;-52
2021/10/02 07:14:24;;;;;;;;;4.25;1.00;;;;;21.08;49.25;100642.03;5077615;27;45283;-57
2021/10/02 07:16:50;;;;;;;;;4.25;2.50;;;;;21.05;49.31;100659.81;5077010;27;46106;-54
2021/10/02 07:19:15;;;;;;;;;3.25;2.50;;;;;21.03;49.23;100659.06;5076728;27;45503;-55
2021/10/02 07:21:41;;;;;;;;;3.75;2.00;;;;;21.00;49.73;100663.56;5077209;27;45317;-53
2021/10/02 07:24:07;;;;;;;;;3.00;1.50;;;;;20.99;49.51;100674.22;5077379;28;45313;-51
2021/10/02 07:26:33;;;;;;;;;1.00;1.00;;;;;21.01;49.48;100662.63;5077180;27;45295;-53
2021/10/02 07:28:58;;;;;;;;;1.00;1.00;;;;;21.00;49.36;100645.13;5076966;27;45333;-53
2021/10/02 07:31:23;;;;;;;;;4.00;4.00;;;;;21.00;49.00;100639.84;5077016;27;45271;-54
2021/10/02 07:33:49;;;;;;;;;2.00;2.00;;;;;21.00;48.81;100629.31;5093096;27;45617;-55
2021/10/02 07:36:18;;;;;;;;;3.50;2.00;;;;;21.00;49.08;100626.69;5076974;27;46356;-53
2021/10/02 07:38:45;;;;;;;;;6.25;2.75;;;;;21.00;49.20;100626.69;5076925;27;45680;-55
2021/10/02 07:41:12;;;;;;;;;2.00;2.00;;;;;21.01;49.10;100619.66;5075714;28;45370;-54
2021/10/02 07:43:43;;;;;;;;;3.75;2.75;;;;;20.99;49.03;100608.34;5077099;27;45418;-55
2021/10/02 07:46:11;;;;;;;;;6.00;1.75;;;;;20.98;49.03;100604.88;5092466;27;47597;-57
2021/10/02 07:48:40;;;;;;;;;2.00;2.00;;;;;20.98;48.82;100604.00;5076656;27;45333;-54
2021/10/02 07:51:05;;;;;;;;;3.00;2.75;;;;;20.97;48.95;100595.28;5077133;27;45319;-53
2021/10/02 07:53:31;;;;;;;;;1.75;1.75;;;;;20.98;49.10;100599.59;5077180;27;45535;-56
2021/10/02 07:55:59;;;;;;;;;2.00;2.00;;;;;20.97;48.76;100597.03;5076485;27;46171;-44
2021/10/02 07:58:25;;;;;;;;;5.25;2.00;;;;;20.98;48.85;100594.34;5076460;28;45402;-51
2021/10/02 08:00:57;;;;;;;;;1.25;1.25;;;;;20.98;48.97;100596.13;5109289;27;45421;-53
2021/10/02 08:03:23;;;;;;;;;4.00;1.25;;;;;20.98;48.43;100598.75;5076773;27;45383;-56
2021/10/02 08:05:50;;;;;;;;;2.25;2.00;;;;;20.98;48.73;100596.97;5076397;27;45281;-55
2021/10/02 08:08:17;;;;;;;;;3.00;2.00;;;;;20.98;48.73;100602.25;5076367;28;45407;-55
2021/10/02 08:10:45;;;;;;;;;3.25;1.25;;;;;20.99;48.91;100596.03;5076458;27;45297;-56
2021/10/02 08:13:13;;;;;;;;;3.00;3.00;;;;;21.03;48.61;100590.56;5076637;27;45341;-53
2021/10/02 08:15:43;;;;;;;;;1.00;1.00;;;;;21.05;48.65;100583.41;5076108;27;45343;-48
2021/10/02 08:18:11;;;;;;;;;2.00;2.00;;;;;21.08;48.57;100580.59;5076372;27;45661;-53
2021/10/02 08:20:38;;;;;;;;;2.75;2.75;;;;;21.09;48.30;100572.59;5092282;27;45594;-43
2021/10/02 08:23:05;;;;;;;;;3.00;1.25;;;;;21.08;48.09;100568.25;5076964;27;45373;-52
2021/10/02 08:25:32;;;;;;;;;3.00;2.00;;;;;21.06;48.53;100566.66;5076072;27;46368;-53
2021/10/02 08:27:59;;;;;;;;;2.50;1.00;;;;;21.09;48.33;100566.47;5074922;28;45667;-55
2021/10/02 08:30:25;;;;;;;;;2.00;1.00;;;;;21.10;48.60;100569.00;5076284;28;45198;-52
2021/10/02 08:32:52;;;;;;;;;1.75;1.75;;;;;21.09;48.41;100562.03;5079332;27;45524;-46
2021/10/02 08:35:17;;;;;;;;;3.00;1.25;;;;;21.11;48.33;100562.81;5079786;27;46263;-52
2021/10/02 08:37:43;;;;;;;;;2.25;2.25;;;;;21.11;48.10;100556.69;5079557;28;45383;-55
2021/10/02 08:40:13;;;;;;;;;4.50;2.00;;;;;21.11;47.52;100560.16;5079779;27;45382;-52
2021/10/02 08:42:40;;;;;;;;;1.50;1.50;;;;;21.11;48.12;100559.34;5080035;27;45220;-43
2021/10/02 08:45:10;;;;;;;;;3.25;2.00;;;;;21.12;48.52;100547.81;5078405;28;47465;-56
2021/10/02 08:47:39;;;;;;;;;2.00;2.00;;;;;21.12;48.50;100537.28;5079659;27;45897;-53
2021/10/02 08:50:07;;;;;;;;;2.00;2.00;;;;;21.12;48.41;100538.16;5079992;27;45346;-52
2021/10/02 08:52:33;;;;;;;;;6.25;2.50;;;;;21.13;48.06;100533.69;5079691;27;45316;-52
2021/10/02 08:55:00;;;;;;;;;3.50;3.00;;;;;21.14;48.17;100532.75;5079595;27;45578;-53
2021/10/02 08:57:27;;;;;;;;;1.00;1.00;;;;;21.13;47.99;100531.06;5079395;27;45826;-56
2021/10/02 08:59:54;;;;;;;;;3.50;1.50;;;;;21.12;48.12;100526.75;5079356;27;45414;-49
2021/10/02 09:02:22;;;;;;;;;3.00;2.00;;;;;21.13;48.09;100544.25;5079650;27;45535;-55
2021/10/02 09:04:49;;;;;;;;;3.00;2.25;;;;;21.15;48.13;100529.19;5079221;28;46339;-55
2021/10/02 09:07:16;;;;;;;;;4.75;2.25;;;;;21.14;47.91;100514.31;5079268;27;45789;-55
2021/10/02 09:09:42;;;;;;;;;2.75;2.75;;;;;21.15;47.58;100516.00;5079359;27;45469;-50
2021/10/02 09:12:08;;;;;;;;;4.50;2.50;;;;;21.14;47.70;100509.91;5079605;27;45262;-55
2021/10/02 09:14:34;;;;;;;;;4.00;2.50;;;;;21.16;47.71;100517.72;5079024;27;45681;-55
2021/10/02 09:17:00;;;;;;;;;3.75;3.25;;;;;21.16;47.78;100517.72;5079217;27;45625;-55
2021/10/02 09:19:25;;;;;;;;;2.00;2.00;;;;;21.17;47.89;100511.50;5079098;27;45419;-54
2021/10/02 09:22:01;;;;;;;;;4.50;3.00;;;;;21.17;47.71;100499.16;5079318;27;45536;-54
2021/10/02 09:24:36;;;;;;;;;2.00;2.00;;;;;21.18;47.63;100492.09;5078808;27;46330;-53
2021/10/02 09:27:03;;;;;;;;;5.25;2.25;;;;;21.17;47.74;100480.69;5078765;27;45651;-55
2021/10/02 09:29:37;;;;;;;;;3.00;3.00;;;;;21.20;47.71;100477.06;5079057;27;45449;-54
2021/10/02 09:32:04;;;;;;;;;4.25;3.75;;;;;21.20;48.08;100460.38;5079004;27;45570;-51
2021/10/02 09:34:30;;;;;;;;;3.50;3.25;;;;;21.19;47.65;100458.69;5078791;27;46557;-52
2021/10/02 09:36:55;;;;;;;;;6.00;3.25;;;;;21.22;47.56;100456.69;5078731;27;45448;-52
2021/10/02 09:39:21;;;;;;;;;3.75;3.00;;;;;21.23;47.93;100450.47;5078955;27;45382;-55
2021/10/02 09:41:49;;;;;;;;;2.00;2.00;;;;;21.25;48.06;100439.84;5078920;28;45569;-56
2021/10/02 09:44:22;;;;;;;;;4.25;4.00;;;;;21.24;47.81;100424.97;5078484;27;47472;-53
2021/10/02 09:46:48;;;;;;;;;3.00;3.00;;;;;21.25;47.49;100422.22;5078573;27;45264;-55
2021/10/02 09:49:13;;;;;;;;;4.50;3.25;;;;;21.26;47.58;100413.38;5078751;27;45266;-56
2021/10/02 09:51:41;;;;;;;;;3.25;3.00;;;;;21.24;47.81;100404.72;5079079;27;45559;-52
2021/10/02 09:54:07;;;;;;;;;4.50;3.25;;;;;21.26;47.85;100408.13;5078469;27;45716;-54
2021/10/02 09:56:32;;;;;;;;;5.00;3.75;;;;;21.28;48.10;100392.19;5094155;27;45762;-56
2021/10/02 09:58:58;;;;;;;;;1.50;1.50;;;;;21.27;47.76;100375.53;5094277;27;45312;-56
2021/10/02 10:01:26;;;;;;;;;4.00;3.00;;;;;21.29;47.44;100364.88;5078442;27;45546;-55
2021/10/02 10:03:52;;;;;;;;;3.00;2.00;;;;;21.29;47.68;100360.47;5078254;27;45720;-55
2021/10/02 10:06:26;;;;;;;;;3.00;3.00;;;;;21.31;47.44;100353.31;5078168;28;45603;-49
2021/10/02 10:09:12;;;;;;;;;2.00;2.00;;;;;21.30;47.37;100340.22;5078587;27;45410;-53
2021/10/02 10:11:49;;;;;;;;;2.75;2.75;;;;;21.29;47.33;100336.75;5078837;27;45230;-43
2021/10/02 10:14:35;;;;;;;;;2.00;1.25;;;;;21.27;47.43;100335.19;5078287;27;45374;-45
2021/10/02 10:17:01;;;;;;;;;1.25;1.25;;;;;21.26;47.19;100328.22;5078135;27;45724;-55
2021/10/02 10:19:30;;;;;;;;;3.50;1.00;;;;;21.25;47.00;100327.34;5078232;27;45374;-57
2021/10/02 10:22:21;;;;;;;;;3.25;2.00;;;;;21.25;47.32;100331.78;5093969;27;45361;-53
2021/10/02 10:24:58;;;;;;;;;5.75;3.25;;;;;21.21;47.33;100310.06;5077857;27;46997;-57
2021/10/02 10:27:38;;;;;;;;;5.00;2.00;;;;;21.19;46.98;100301.41;5078035;27;46236;-55
2021/10/02 10:30:14;;;;;;;;;2.25;2.25;;;;;21.17;47.07;100282.22;5078221;27;45355;-56
2021/10/02 10:33:07;;;;;;;;;3.00;3.00;;;;;21.15;47.50;100284.09;5078447;27;45215;-56
2021/10/02 10:35:38;;;;;;;;;2.00;2.00;;;;;21.16;47.31;100291.06;5077708;28;45618;-55
2021/10/02 10:38:06;;;;;;;;;5.00;3.00;;;;;21.16;47.45;100291.06;5077839;27;45453;-53
2021/10/02 10:40:32;;;;;;;;;3.00;2.75;;;;;21.15;47.37;100289.38;5093566;27;45280;-56
2021/10/02 10:42:57;;;;;;;;;3.25;2.25;;;;;21.17;47.08;100292.75;5078006;28;45316;-53
2021/10/02 10:45:24;;;;;;;;;1.75;1.75;;;;;21.16;47.31;100291.06;5077657;28;45362;-55
2021/10/02 10:47:51;;;;;;;;;2.00;2.00;;;;;21.15;46.84;100299.91;5077698;27;45201;-55
2021/10/02 10:50:17;;;;;;;;;2.00;2.00;;;;;21.13;47.18;100286.00;5077743;27;45216;-56
2021/10/02 10:52:44;;;;;;;;;2.25;2.25;;;;;21.14;46.80;100292.97;5078103;28;45561;-53
2021/10/02 10:55:11;;;;;;;;;1.25;1.25;;;;;21.14;47.06;100277.16;5076798;28;46504;-55
2021/10/02 10:57:40;;;;;;;;;1.25;1.25;;;;;21.14;47.13;100271.88;5077413;27;45672;-55
2021/10/02 11:00:16;;;;;;;;;3.50;3.00;;;;;21.14;47.05;100263.97;5077563;27;45282;-56
2021/10/02 11:02:52;;;;;;;;;5.00;3.25;;;;;21.13;47.40;100249.09;5093700;27;45490;-50
2021/10/02 11:05:43;;;;;;;;;6.00;4.75;;;;;21.14;47.39;100250.78;5077336;27;46189;-50
2021/10/02 11:08:10;;;;;;;;;5.00;5.00;;;;;21.12;47.64;100243.00;5077545;27;45409;-44
2021/10/02 11:10:41;;;;;;;;;13.50;9.00;;;;;21.12;47.72;100252.69;5077436;27;45356;-52
2021/10/02 11:13:13;;;;;;;;;15.75;9.75;;;;;21.13;47.77;100244.69;5077524;27;45583;-49
2021/10/02 11:15:40;;;;;;;;;18.75;14.00;;;;;21.12;47.81;100240.38;5077179;27;45432;-41
2021/10/02 11:18:25;;;;;;;;;13.50;11.00;;;;;21.12;47.80;100229.84;5077155;27;45405;-45
2021/10/02 11:21:03;;;;;;;;;14.00;13.00;;;;;21.12;47.81;100224.56;5077287;27;45463;-48
2021/10/02 11:23:56;;;;;;;;;11.25;10.25;;;;;21.12;47.82;100223.69;5077378;27;45168;-54
2021/10/02 11:26:36;;;;;;;;;12.75;12.50;;;;;21.11;47.80;100220.25;5077029;28;45473;-44
2021/10/02 11:29:01;;;;;;;;;10.75;9.25;;;;;21.12;48.04;100214.03;5077127;27;45746;-50
2021/10/02 11:31:27;;;;;;;;;15.00;11.00;;;;;21.12;47.86;100207.91;5077082;28;45176;-54
2021/10/02 11:33:55;;;;;;;;;9.50;8.50;;;;;21.12;48.12;100200.00;5077118;27;45462;-46
2021/10/02 11:36:41;;;;;;;;;10.25;9.50;;;;;21.12;48.33;100186.81;5076929;27;45511;-52
2021/10/02 11:39:21;;;;;;;;;8.25;7.75;;;;;21.12;48.04;100192.09;5077015;28;45858;-47
2021/10/02 11:41:52;;;;;;;;;8.25;7.25;;;;;21.12;48.09;100185.03;5077063;27;45214;-49
2021/10/02 11:44:37;;;;;;;;;14.00;7.25;;;;;21.13;47.75;100172.69;5076731;27;45239;-46
2021/10/02 11:47:38;;;;;;;;;10.75;6.75;;;;;21.12;48.11;100155.19;5075139;28;47183;-42
2021/10/02 11:50:06;;;;;;;;;9.25;6.25;;;;;21.14;47.83;100148.03;5076612;28;45344;-46
2021/10/02 11:52:32;;;;;;;;;7.00;7.00;;;;;21.14;48.15;100142.75;5076712;28;45502;-45
2021/10/02 11:55:32;;;;;;;;;8.75;7.00;;;;;21.14;47.77;100155.94;5077068;27;45410;-49
2021/10/02 11:58:06;;;;;;;;;7.00;6.25;;;;;21.16;48.03;100130.31;5076486;27;45671;-51
2021/10/02 12:00:34;;;;;;;;;6.00;6.00;;;;;21.15;47.77;100120.75;5076370;28;45257;-43
2021/10/02 12:03:01;;;;;;;;;5.75;5.00;;;;;21.15;47.84;100116.31;5092282;27;45286;-49
2021/10/02 12:05:27;;;;;;;;;6.50;6.25;;;;;21.16;47.80;100122.44;5077478;27;45573;-50
2021/10/02 12:07:53;;;;;;;;;8.25;5.00;;;;;21.16;47.75;100110.09;5080192;27;46591;-45
2021/10/02 12:10:19;;;;;;;;;7.75;7.75;;;;;21.15;47.67;100091.75;5080181;27;45681;-48
2021/10/02 12:12:45;;;;;;;;;10.25;7.00;;;;;21.16;48.18;100075.84;5080429;27;45358;-51
2021/10/02 12:15:10;;;;;;;;;8.00;6.25;;;;;21.16;47.79;100080.25;5080352;27;45193;-44
2021/10/02 12:17:51;;;;;;;;;7.75;6.50;;;;;21.16;48.17;100065.31;5079950;27;46267;-44
2021/10/02 12:20:16;;;;;;;;;7.25;7.00;;;;;21.16;47.97;100059.19;5080351;27;45907;-45
2021/10/02 12:22:42;;;;;;;;;4.50;4.50;;;;;21.16;47.70;100061.81;5080119;27;45289;-48